Time;durP1;ratioP1;P1;durP2;ratioP2;P2;SDS_P1;SDS_P2;PMS_P1;PMS_P2;Temp;Humidity;BMP_temperature;BMP_pressure;BME280_temperature;BME280_humidity;BME280_pressure;Samples;Min_cycle;Max_cycle;Signal;HPM_P1;HPM_P2
2023/03/25 00:00:16;;;;;;;;;;;10.00;91.90;;;;;;5050811;28;19919;-75
2023/03/25 00:02:43;;;;;;;;;;;10.00;91.90;;;;;;5048935;28;19920;-75
2023/03/25 00:05:10;;;;;;;;;;;10.00;91.90;;;;;;5050247;28;19944;-74
2023/03/25 00:07:35;;;;;;;;;;;10.00;91.90;;;;;;5049039;28;19909;-74
2023/03/25 00:10:01;;;;;;;;;;;10.10;92.00;;;;;;5050307;28;19909;-74
2023/03/25 00:12:27;;;;;;;;;;;10.10;91.90;;;;;;5050171;28;20233;-74
2023/03/25 00:14:57;;;;;;;;;;;10.20;91.90;;;;;;5049838;28;19923;-75
2023/03/25 00:17:25;;;;;;;;;;;10.20;91.90;;;;;;5050465;28;20300;-74
2023/03/25 00:19:50;;;;;;;;;;;10.30;91.90;;;;;;5050020;28;20013;-75
2023/03/25 00:22:16;;;;;;;;;;;10.30;91.90;;;;;;5048546;28;20337;-75
2023/03/25 00:24:42;;;;;;;;;;;10.30;91.90;;;;;;5049846;28;19909;-75
2023/03/25 00:27:07;;;;;;;;;;;10.30;91.90;;;;;;5048835;28;20076;-74
2023/03/25 00:29:33;;;;;;;;;;;10.30;91.90;;;;;;5049931;28;19912;-74
2023/03/25 00:31:59;;;;;;;;;;;10.20;91.80;;;;;;5048476;28;20344;-75
2023/03/25 00:34:24;;;;;;;;;;;10.20;91.80;;;;;;5049834;28;20402;-75
2023/03/25 00:36:50;;;;;;;;;;;10.20;91.80;;;;;;5049853;28;20058;-75
2023/03/25 00:39:15;;;;;;;;;;;10.20;91.90;;;;;;5049853;28;19948;-75
2023/03/25 00:41:42;;;;;;;;;;;10.10;91.90;;;;;;5049621;28;20395;-75
2023/03/25 00:44:08;;;;;;;;;;;10.10;91.90;;;;;;5048580;28;19909;-75
2023/03/25 00:46:34;;;;;;;;;;;10.10;91.90;;;;;;5048425;28;19912;-75
2023/03/25 00:49:00;;;;;;;;;;;10.00;91.90;;;;;;5049712;28;20288;-75
2023/03/25 00:51:26;;;;;;;;;;;10.00;91.80;;;;;;5049637;28;19995;-75
2023/03/25 00:53:54;;;;;;;;;;;10.00;91.80;;;;;;5049395;28;19994;-75
2023/03/25 00:56:20;;;;;;;;;;;9.90;91.80;;;;;;5048212;28;19905;-75
2023/03/25 00:58:45;;;;;;;;;;;9.90;91.80;;;;;;5047966;28;19909;-75
2023/03/25 01:01:12;;;;;;;;;;;9.80;91.80;;;;;;5049349;28;19915;-75
2023/03/25 01:03:39;;;;;;;;;;;9.70;91.80;;;;;;5048868;28;20179;-75
2023/03/25 01:06:11;;;;;;;;;;;9.70;91.80;;;;;;5049110;28;20301;-75
2023/03/25 01:08:37;;;;;;;;;;;9.70;91.90;;;;;;5048716;28;19912;-75
2023/03/25 01:11:03;;;;;;;;;;;9.70;91.90;;;;;;5047858;28;19909;-75
2023/03/25 01:13:28;;;;;;;;;;;9.70;91.90;;;;;;5049090;28;19917;-75
2023/03/25 01:15:54;;;;;;;;;;;9.70;91.90;;;;;;5049072;28;20421;-75
2023/03/25 01:18:20;;;;;;;;;;;9.70;91.90;;;;;;5048938;28;19932;-75
2023/03/25 01:20:45;;;;;;;;;;;9.70;91.90;;;;;;5048874;28;19917;-75
2023/03/25 01:23:11;;;;;;;;;;;9.70;91.90;;;;;;5048938;28;19972;-75
2023/03/25 01:25:36;;;;;;;;;;;9.70;91.90;;;;;;5048958;28;19912;-75
2023/03/25 01:28:03;;;;;;;;;;;9.60;91.80;;;;;;5048897;28;19905;-75
2023/03/25 01:30:29;;;;;;;;;;;9.60;91.90;;;;;;5048826;28;20376;-75
2023/03/25 01:32:54;;;;;;;;;;;9.50;91.90;;;;;;5047547;28;19909;-75
2023/03/25 01:35:20;;;;;;;;;;;9.50;91.90;;;;;;5047308;28;19924;-75
2023/03/25 01:37:46;;;;;;;;;;;9.40;91.90;;;;;;5047511;28;19916;-75
2023/03/25 01:40:17;;;;;;;;;;;9.40;91.90;;;;;;5048628;28;19917;-75
2023/03/25 01:42:42;;;;;;;;;;;9.30;91.80;;;;;;5048710;28;20360;-75
2023/03/25 01:45:11;;;;;;;;;;;9.30;91.80;;;;;;5048468;28;19916;-75
2023/03/25 01:47:36;;;;;;;;;;;9.20;91.80;;;;;;5048499;28;20395;-75
2023/03/25 01:50:02;;;;;;;;;;;9.20;91.80;;;;;;5047243;28;19915;-75
2023/03/25 01:52:29;;;;;;;;;;;9.10;91.80;;;;;;5048382;28;20337;-75
2023/03/25 01:54:55;;;;;;;;;;;9.10;91.90;;;;;;5048104;28;19912;-75
2023/03/25 01:57:22;;;;;;;;;;;9.10;91.90;;;;;;5047006;28;20388;-75
2023/03/25 01:59:49;;;;;;;;;;;9.10;91.90;;;;;;5048346;28;20273;-75
2023/03/25 02:02:18;;;;;;;;;;;9.20;92.00;;;;;;5047926;28;19916;-75
2023/03/25 02:04:50;;;;;;;;;;;9.20;92.00;;;;;;5048151;28;19944;-75
2023/03/25 02:07:17;;;;;;;;;;;9.30;91.90;;;;;;5047034;28;19916;-75
2023/03/25 02:09:43;;;;;;;;;;;9.30;91.90;;;;;;5048290;28;20299;-75
2023/03/25 02:12:08;;;;;;;;;;;9.30;91.90;;;;;;5048124;28;19982;-75
2023/03/25 02:14:36;;;;;;;;;;;9.30;92.00;;;;;;5047938;28;20440;-75
2023/03/25 02:17:20;;;;;;;;;;;9.30;91.90;;;;;;5048005;28;20392;-75
2023/03/25 02:20:08;;;;;;;;;;;9.30;91.90;;;;;;5048077;28;20363;-75
2023/03/25 02:22:36;;;;;;;;;;;9.20;91.80;;;;;;5047952;28;19970;-75
2023/03/25 02:25:20;;;;;;;;;;;9.20;91.90;;;;;;5048106;28;19905;-75
2023/03/25 02:28:24;;;;;;;;;;;9.10;91.90;;;;;;5048056;28;20242;-75
2023/03/25 02:31:08;;;;;;;;;;;9.00;91.80;;;;;;5036560;28;19905;-75
2023/03/25 02:34:03;;;;;;;;;;;8.90;91.80;;;;;;5048054;28;19919;-75
2023/03/25 02:36:37;;;;;;;;;;;8.90;91.90;;;;;;5047943;28;19909;-75
2023/03/25 02:39:11;;;;;;;;;;;8.80;91.90;;;;;;5047857;28;20381;-75
2023/03/25 02:41:40;;;;;;;;;;;8.80;91.90;;;;;;5047757;28;19908;-75
2023/03/25 02:44:05;;;;;;;;;;;8.70;91.90;;;;;;5046380;28;19919;-74
2023/03/25 02:46:31;;;;;;;;;;;8.70;91.90;;;;;;5047661;28;19915;-75
2023/03/25 02:49:04;;;;;;;;;;;8.70;91.90;;;;;;5047751;28;19919;-74
2023/03/25 02:51:36;;;;;;;;;;;8.60;91.90;;;;;;5047609;28;19916;-74
2023/03/25 02:54:04;;;;;;;;;;;8.60;91.90;;;;;;5047456;28;20360;-75
2023/03/25 02:56:31;;;;;;;;;;;8.60;91.90;;;;;;5047609;28;20327;-75
2023/03/25 02:58:58;;;;;;;;;;;8.60;91.90;;;;;;5047521;28;19926;-75
2023/03/25 03:01:25;;;;;;;;;;;8.50;91.90;;;;;;5047598;28;19959;-75
2023/03/25 03:03:54;;;;;;;;;;;8.50;91.90;;;;;;5047373;28;20365;-74
2023/03/25 03:06:21;;;;;;;;;;;8.50;91.90;;;;;;5047643;28;19922;-74
2023/03/25 03:08:46;;;;;;;;;;;8.50;91.90;;;;;;5050419;28;20003;-75
2023/03/25 03:11:26;;;;;;;;;;;8.40;91.90;;;;;;5052063;28;20364;-74
2023/03/25 03:13:58;;;;;;;;;;;8.40;91.90;;;;;;5050043;28;20288;-75
2023/03/25 03:16:43;;;;;;;;;;;8.40;91.90;;;;;;5051337;28;20361;-75
2023/03/25 03:19:08;;;;;;;;;;;8.40;91.90;;;;;;5051372;28;19912;-74
2023/03/25 03:21:37;;;;;;;;;;;8.40;91.90;;;;;;5051356;28;19905;-74
2023/03/25 03:24:15;;;;;;;;;;;8.40;91.90;;;;;;5051240;28;19919;-75
2023/03/25 03:26:47;;;;;;;;;;;8.40;91.80;;;;;;5051302;28;19905;-75
2023/03/25 03:29:17;;;;;;;;;;;8.40;91.80;;;;;;5049942;28;19947;-74
2023/03/25 03:31:57;;;;;;;;;;;8.30;91.80;;;;;;5051356;28;19905;-75
2023/03/25 03:34:35;;;;;;;;;;;8.30;91.80;;;;;;5051498;28;19912;-75
2023/03/25 03:37:02;;;;;;;;;;;8.30;91.80;;;;;;5051175;28;19974;-74
2023/03/25 03:39:30;;;;;;;;;;;8.20;91.80;;;;;;5051088;28;19958;-75
2023/03/25 03:42:01;;;;;;;;;;;8.20;91.80;;;;;;5051039;28;20291;-75
2023/03/25 03:44:30;;;;;;;;;;;8.20;91.90;;;;;;5051069;28;19905;-75
2023/03/25 03:47:01;;;;;;;;;;;8.20;91.90;;;;;;5050990;28;19913;-75
2023/03/25 03:49:29;;;;;;;;;;;8.20;91.90;;;;;;5050835;28;19905;-75
2023/03/25 03:51:54;;;;;;;;;;;8.20;91.90;;;;;;5050883;28;19927;-76
2023/03/25 03:54:22;;;;;;;;;;;8.20;91.90;;;;;;5049551;28;20418;-75
2023/03/25 03:57:08;;;;;;;;;;;8.20;91.90;;;;;;5050744;28;19968;-74
2023/03/25 03:59:34;;;;;;;;;;;8.20;91.80;;;;;;5050195;28;19954;-75
2023/03/25 04:02:02;;;;;;;;;;;8.20;91.90;;;;;;5050476;28;20377;-75
2023/03/25 04:04:28;;;;;;;;;;;8.20;91.90;;;;;;5049420;28;19912;-75
2023/03/25 04:06:57;;;;;;;;;;;8.20;91.90;;;;;;5050442;28;19916;-75
2023/03/25 04:09:26;;;;;;;;;;;8.20;91.90;;;;;;5050575;28;19905;-75
2023/03/25 04:11:57;;;;;;;;;;;8.20;91.90;;;;;;5050328;28;20336;-75
2023/03/25 04:14:24;;;;;;;;;;;8.10;91.80;;;;;;5050337;28;20369;-75
2023/03/25 04:16:51;;;;;;;;;;;8.10;91.90;;;;;;5050400;28;19919;-75
2023/03/25 04:19:17;;;;;;;;;;;8.10;91.80;;;;;;5047608;28;19919;-75
2023/03/25 04:21:44;;;;;;;;;;;8.10;91.80;;;;;;5050303;28;19905;-75
2023/03/25 04:24:10;;;;;;;;;;;8.00;91.80;;;;;;5050140;28;20288;-75
2023/03/25 04:26:36;;;;;;;;;;;8.00;91.80;;;;;;5050058;28;19962;-75
2023/03/25 04:29:06;;;;;;;;;;;8.00;91.80;;;;;;5050137;28;20280;-75
2023/03/25 04:31:32;;;;;;;;;;;8.00;91.90;;;;;;5050043;28;19915;-75
2023/03/25 04:33:58;;;;;;;;;;;7.90;91.90;;;;;;5050231;28;19913;-75
2023/03/25 04:36:27;;;;;;;;;;;7.90;91.90;;;;;;5050016;28;19905;-75
2023/03/25 04:38:54;;;;;;;;;;;8.00;92.00;;;;;;5049829;28;19944;-75
2023/03/25 04:41:23;;;;;;;;;;;8.10;92.00;;;;;;5049893;28;19983;-75
2023/03/25 04:43:48;;;;;;;;;;;8.20;92.00;;;;;;5049744;28;19966;-75
2023/03/25 04:46:15;;;;;;;;;;;8.20;91.90;;;;;;5049732;28;19909;-75
2023/03/25 04:48:43;;;;;;;;;;;8.30;92.00;;;;;;5049680;28;19905;-75
2023/03/25 04:51:11;;;;;;;;;;;8.40;91.90;;;;;;5048406;28;19916;-75
2023/03/25 04:53:37;;;;;;;;;;;8.40;91.90;;;;;;5049473;28;19954;-75
2023/03/25 04:56:04;;;;;;;;;;;8.50;91.90;;;;;;5049642;28;19920;-75
2023/03/25 04:58:29;;;;;;;;;;;8.50;91.90;;;;;;5049419;28;19966;-75
2023/03/25 05:00:55;;;;;;;;;;;8.60;91.90;;;;;;5049418;28;19955;-75
2023/03/25 05:03:23;;;;;;;;;;;8.60;91.90;;;;;;5049092;28;20473;-75
2023/03/25 05:05:52;;;;;;;;;;;8.70;91.90;;;;;;5049384;28;20050;-75
2023/03/25 05:08:20;;;;;;;;;;;8.70;91.90;;;;;;5049343;28;19913;-75
2023/03/25 05:10:46;;;;;;;;;;;8.70;91.90;;;;;;5049666;28;20372;-75
2023/03/25 05:13:11;;;;;;;;;;;8.70;91.90;;;;;;5047843;28;19905;-75
2023/03/25 05:15:40;;;;;;;;;;;8.70;91.90;;;;;;5047836;28;20316;-75
2023/03/25 05:18:08;;;;;;;;;;;8.70;91.90;;;;;;5049106;28;20003;-75
2023/03/25 05:20:36;;;;;;;;;;;8.70;91.90;;;;;;5049113;28;20003;-75
2023/03/25 05:23:03;;;;;;;;;;;8.70;92.00;;;;;;5049131;28;19978;-75
2023/03/25 05:25:32;;;;;;;;;;;8.80;92.00;;;;;;5049075;28;19908;-75
2023/03/25 05:27:59;;;;;;;;;;;8.80;92.00;;;;;;5047707;28;20390;-75
2023/03/25 05:30:31;;;;;;;;;;;8.80;91.90;;;;;;5048446;28;19905;-75
2023/03/25 05:32:58;;;;;;;;;;;8.90;92.20;;;;;;5047588;28;19909;-75
2023/03/25 05:35:27;;;;;;;;;;;8.90;91.90;;;;;;5048732;28;19955;-75
2023/03/25 05:37:53;;;;;;;;;;;8.90;91.90;;;;;;5048768;28;19999;-75
2023/03/25 05:40:18;;;;;;;;;;;8.80;91.80;;;;;;5048561;28;19984;-74
2023/03/25 05:42:47;;;;;;;;;;;8.70;91.80;;;;;;5047218;28;19970;-75
2023/03/25 05:45:14;;;;;;;;;;;8.60;91.80;;;;;;5048600;28;19916;-75
2023/03/25 05:47:40;;;;;;;;;;;8.50;91.80;;;;;;5048451;28;19912;-75
2023/03/25 05:50:07;;;;;;;;;;;8.40;91.80;;;;;;5048022;28;19909;-75
2023/03/25 05:52:32;;;;;;;;;;;8.40;91.90;;;;;;5046983;28;19905;-75
2023/03/25 05:54:58;;;;;;;;;;;8.40;91.90;;;;;;5047157;28;19912;-75
2023/03/25 05:57:23;;;;;;;;;;;8.30;92.00;;;;;;5048393;28;19909;-75
2023/03/25 05:59:50;;;;;;;;;;;8.30;92.00;;;;;;5047313;28;19913;-75
2023/03/25 06:02:16;;;;;;;;;;;8.30;92.00;;;;;;5047893;28;19930;-75
2023/03/25 06:04:41;;;;;;;;;;;8.40;92.10;;;;;;5048346;28;19913;-75
2023/03/25 06:07:12;;;;;;;;;;;8.50;92.10;;;;;;5048319;28;19912;-75
2023/03/25 06:09:45;;;;;;;;;;;8.50;92.10;;;;;;5048303;28;20403;-75
2023/03/25 06:12:18;;;;;;;;;;;8.60;92.30;;;;;;5048261;28;19916;-75
2023/03/25 06:14:45;;;;;;;;;;;8.70;92.10;;;;;;5048123;28;20190;-75
2023/03/25 06:17:11;;;;;;;;;;;8.80;92.10;;;;;;5048427;28;19966;-76
2023/03/25 06:19:39;;;;;;;;;;;8.80;92.10;;;;;;5048171;28;19934;-75
2023/03/25 06:22:08;;;;;;;;;;;8.90;92.10;;;;;;5047982;28;19960;-75
2023/03/25 06:24:36;;;;;;;;;;;8.90;92.10;;;;;;5047993;28;19912;-75
2023/03/25 06:27:02;;;;;;;;;;;8.90;92.10;;;;;;5047995;28;19914;-75
2023/03/25 06:29:28;;;;;;;;;;;9.00;92.10;;;;;;5047927;28;19904;-75
2023/03/25 06:31:54;;;;;;;;;;;9.10;92.20;;;;;;5046844;28;19923;-75
2023/03/25 06:34:19;;;;;;;;;;;9.10;92.20;;;;;;5047757;28;19939;-75
2023/03/25 06:36:48;;;;;;;;;;;9.20;92.20;;;;;;5047989;28;20377;-76
2023/03/25 06:39:15;;;;;;;;;;;9.30;92.10;;;;;;5047906;28;19919;-75
2023/03/25 06:41:41;;;;;;;;;;;9.30;92.10;;;;;;5047087;28;20372;-75
2023/03/25 06:44:06;;;;;;;;;;;9.30;92.10;;;;;;5047594;28;20289;-75
2023/03/25 06:46:32;;;;;;;;;;;9.40;92.10;;;;;;5046410;28;19916;-75
2023/03/25 06:48:57;;;;;;;;;;;9.40;92.10;;;;;;5047651;28;19926;-75
2023/03/25 06:51:23;;;;;;;;;;;9.50;92.10;;;;;;5047642;28;19908;-75
2023/03/25 06:53:49;;;;;;;;;;;9.50;92.10;;;;;;5047495;28;19912;-75
2023/03/25 06:56:14;;;;;;;;;;;9.60;92.20;;;;;;5046271;28;20281;-75
2023/03/25 06:58:40;;;;;;;;;;;9.60;92.10;;;;;;5046217;28;19905;-75
2023/03/25 07:01:06;;;;;;;;;;;9.70;92.10;;;;;;5046383;28;19958;-75
2023/03/25 07:03:32;;;;;;;;;;;9.70;92.10;;;;;;5047887;28;19971;-74
2023/03/25 07:05:58;;;;;;;;;;;9.70;92.20;;;;;;5047388;28;20187;-75
2023/03/25 07:08:23;;;;;;;;;;;9.70;92.10;;;;;;5047571;28;19905;-75
2023/03/25 07:10:49;;;;;;;;;;;9.80;92.10;;;;;;5047629;28;20482;-75
2023/03/25 07:13:15;;;;;;;;;;;9.80;92.10;;;;;;5047503;28;19916;-76
2023/03/25 07:15:40;;;;;;;;;;;9.80;92.10;;;;;;5046346;28;19912;-76
2023/03/25 07:18:06;;;;;;;;;;;9.80;92.10;;;;;;5047402;28;20391;-75
2023/03/25 07:20:31;;;;;;;;;;;9.90;92.20;;;;;;5047528;28;19908;-75
2023/03/25 07:22:57;;;;;;;;;;;10.00;92.30;;;;;;5047595;28;20391;-76
2023/03/25 07:25:22;;;;;;;;;;;10.10;92.20;;;;;;5047215;28;19909;-75
2023/03/25 07:27:48;;;;;;;;;;;10.10;92.10;;;;;;5047129;28;19944;-76
2023/03/25 07:30:14;;;;;;;;;;;10.00;92.00;;;;;;5029392;28;19958;-75
2023/03/25 07:32:39;;;;;;;;;;;10.00;92.00;;;;;;5045761;28;19915;-75
2023/03/25 07:35:06;;;;;;;;;;;9.90;92.10;;;;;;5047315;28;19970;-75
2023/03/25 07:37:32;;;;;;;;;;;10.00;92.20;;;;;;5047265;28;19998;-75
2023/03/25 07:39:57;;;;;;;;;;;10.00;92.20;;;;;;5047230;28;20008;-75
2023/03/25 07:42:23;;;;;;;;;;;10.10;92.40;;;;;;5047031;28;19909;-76
2023/03/25 07:44:49;;;;;;;;;;;10.20;92.30;;;;;;5045985;28;19909;-76
2023/03/25 07:47:14;;;;;;;;;;;10.30;92.40;;;;;;5045856;28;19944;-76
2023/03/25 07:49:40;;;;;;;;;;;10.50;92.50;;;;;;5047178;28;19916;-76
2023/03/25 07:52:06;;;;;;;;;;;11.00;92.80;;;;;;5046928;28;19912;-76
2023/03/25 07:54:31;;;;;;;;;;;11.40;92.60;;;;;;5050435;28;20011;-75
2023/03/25 07:56:57;;;;;;;;;;;11.70;92.60;;;;;;5049106;28;19948;-75
2023/03/25 07:59:24;;;;;;;;;;;11.90;92.20;;;;;;5049001;28;20467;-75
2023/03/25 08:01:49;;;;;;;;;;;11.90;92.00;;;;;;5049174;28;19916;-76
2023/03/25 08:04:15;;;;;;;;;;;11.90;92.00;;;;;;5050518;28;20296;-75
2023/03/25 08:06:41;;;;;;;;;;;11.80;92.00;;;;;;5050420;28;19909;-75
2023/03/25 08:09:06;;;;;;;;;;;11.90;92.30;;;;;;5049036;28;19956;-76
2023/03/25 08:11:32;;;;;;;;;;;12.50;92.90;;;;;;5050246;28;19960;-76
2023/03/25 08:13:57;;;;;;;;;;;12.90;92.40;;;;;;5050205;28;19908;-76
2023/03/25 08:16:23;;;;;;;;;;;12.90;92.00;;;;;;5050047;28;19909;-76
2023/03/25 08:18:51;;;;;;;;;;;12.80;92.00;;;;;;5048812;28;19912;-76
2023/03/25 08:21:21;;;;;;;;;;;12.60;92.00;;;;;;5050141;28;19924;-76
2023/03/25 08:23:47;;;;;;;;;;;12.50;92.00;;;;;;5049936;28;19904;-76
2023/03/25 08:26:12;;;;;;;;;;;12.40;92.10;;;;;;5049850;28;19913;-75
2023/03/25 08:28:38;;;;;;;;;;;12.40;92.10;;;;;;5048341;28;19969;-76
2023/03/25 08:31:08;;;;;;;;;;;12.40;92.20;;;;;;5048486;28;19915;-76
2023/03/25 08:33:38;;;;;;;;;;;12.50;92.60;;;;;;5049804;28;19916;-69
2023/03/25 08:36:04;;;;;;;;;;;12.60;92.30;;;;;;5048117;28;19908;-76
2023/03/25 08:38:30;;;;;;;;;;;12.70;92.20;;;;;;5050072;28;19959;-76
2023/03/25 08:40:55;;;;;;;;;;;12.80;92.30;;;;;;5048584;28;20419;-76
2023/03/25 08:43:21;;;;;;;;;;;12.80;92.20;;;;;;5048298;28;19916;-76
2023/03/25 08:45:46;;;;;;;;;;;12.90;92.30;;;;;;5049669;28;19909;-76
2023/03/25 08:48:12;;;;;;;;;;;13.40;92.90;;;;;;5049433;28;19915;-76
2023/03/25 08:50:37;;;;;;;;;;;14.40;93.50;;;;;;5049335;28;19916;-77
2023/03/25 08:53:03;;;;;;;;;;;15.50;93.20;;;;;;5047654;28;19956;-77
2023/03/25 08:55:28;;;;;;;;;;;16.30;92.90;;;;;;5048069;28;20302;-77
2023/03/25 08:57:54;;;;;;;;;;;16.90;92.50;;;;;;5047537;28;19908;-77
2023/03/25 09:00:23;;;;;;;;;;;16.90;92.20;;;;;;5048898;28;19909;-77
2023/03/25 09:02:49;;;;;;;;;;;16.80;91.90;;;;;;5048229;28;19921;-77
2023/03/25 09:05:15;;;;;;;;;;;16.30;91.60;;;;;;5047615;28;19905;-77
2023/03/25 09:07:41;;;;;;;;;;;15.70;91.60;;;;;;5048526;28;19931;-77
2023/03/25 09:10:07;;;;;;;;;;;15.20;91.60;;;;;;5048809;28;20289;-76
2023/03/25 09:12:33;;;;;;;;;;;14.70;91.90;;;;;;5048809;28;19955;-76
2023/03/25 09:14:59;;;;;;;;;;;14.50;92.10;;;;;;5048933;28;20372;-77
2023/03/25 09:17:24;;;;;;;;;;;14.40;92.40;;;;;;5047247;28;19912;-77
2023/03/25 09:19:50;;;;;;;;;;;14.80;93.00;;;;;;5049033;28;20390;-76
2023/03/25 09:22:16;;;;;;;;;;;15.10;92.70;;;;;;5047585;28;19913;-77
2023/03/25 09:24:41;;;;;;;;;;;15.20;92.40;;;;;;5048451;28;20353;-76
2023/03/25 09:27:07;;;;;;;;;;;15.60;93.10;;;;;;5048299;28;20418;-77
2023/03/25 09:29:33;;;;;;;;;;;15.80;92.70;;;;;;5048820;28;19952;-77
2023/03/25 09:31:59;;;;;;;;;;;16.60;93.70;;;;;;5049029;28;20355;-78
2023/03/25 09:34:26;;;;;;;;;;;17.80;93.90;;;;;;5049589;28;19961;-79
2023/03/25 09:36:52;;;;;;;;;;;19.00;93.60;;;;;;5048715;28;19920;-75
2023/03/25 09:39:17;;;;;;;;;;;19.90;93.40;;;;;;5049842;28;19999;-76
2023/03/25 09:41:43;;;;;;;;;;;20.60;92.90;;;;;;5049674;28;20368;-75
2023/03/25 09:44:11;;;;;;;;;;;20.40;92.30;;;;;;5049562;28;19909;-74
2023/03/25 09:46:38;;;;;;;;;;;20.60;92.70;;;;;;5048132;28;20353;-75
2023/03/25 09:49:04;;;;;;;;;;;20.40;92.00;;;;;;5049390;28;19909;-74
2023/03/25 09:51:34;;;;;;;;;;;20.30;92.30;;;;;;5048149;28;20046;-74
2023/03/25 09:54:18;;;;;;;;;;;20.10;92.40;;;;;;5049177;28;19905;-74
2023/03/25 09:56:44;;;;;;;;;;;20.70;93.20;;;;;;5048744;28;19911;-75
2023/03/25 09:59:16;;;;;;;;;;;21.80;93.40;;;;;;5047705;28;19916;-74
2023/03/25 10:02:20;;;;;;;;;;;22.50;93.10;;;;;;5048869;28;19905;-74
2023/03/25 10:05:03;;;;;;;;;;;23.00;93.00;;;;;;5009722;28;19905;-74
2023/03/25 10:07:37;;;;;;;;;;;23.20;92.60;;;;;;5010429;28;19993;-74
2023/03/25 10:10:12;;;;;;;;;;;23.20;92.50;;;;;;5032918;28;19959;-74
2023/03/25 10:12:57;;;;;;;;;;;22.90;92.20;;;;;;5048347;28;19924;-74
2023/03/25 10:15:26;;;;;;;;;;;22.10;91.90;;;;;;5048558;28;19954;-74
2023/03/25 10:18:13;;;;;;;;;;;21.60;92.40;;;;;;5049117;28;20354;-75
2023/03/25 10:20:45;;;;;;;;;;;21.50;92.60;;;;;;5048853;28;19951;-75
2023/03/25 10:23:17;;;;;;;;;;;22.00;93.40;;;;;;5048603;28;19904;-70
2023/03/25 10:25:44;;;;;;;;;;;22.70;93.50;;;;;;5048516;28;20265;-70
2023/03/25 10:28:24;;;;;;;;;;;23.50;93.60;;;;;;5048580;28;19915;-70
2023/03/25 10:30:51;;;;;;;;;;;24.30;93.40;;;;;;5048638;28;19909;-70
2023/03/25 10:33:26;;;;;;;;;;;24.80;93.20;;;;;;5048169;28;20357;-71
2023/03/25 10:35:53;;;;;;;;;;;25.20;93.10;;;;;;5048271;28;19948;-70
2023/03/25 10:38:28;;;;;;;;;;;25.20;92.60;;;;;;5039025;28;19931;-70
2023/03/25 10:40:57;;;;;;;;;;;24.60;92.40;;;;;;5036514;28;19905;-71
2023/03/25 10:43:30;;;;;;;;;;;24.00;92.40;;;;;;5036883;28;19976;-70
2023/03/25 10:45:59;;;;;;;;;;;23.30;92.20;;;;;;5036307;28;19905;-70
2023/03/25 10:48:26;;;;;;;;;;;22.40;92.20;;;;;;5037406;28;19912;-70
2023/03/25 10:50:58;;;;;;;;;;;21.60;92.30;;;;;;5030580;28;19912;-70
2023/03/25 10:53:25;;;;;;;;;;;20.90;92.30;;;;;;5027624;28;19912;-70
2023/03/25 10:55:55;;;;;;;;;;;20.30;92.50;;;;;;5027182;28;19909;-71
2023/03/25 10:58:21;;;;;;;;;;;20.00;93.10;;;;;;5026675;28;19912;-72
2023/03/25 11:00:47;;;;;;;;;;;20.10;93.10;;;;;;5026643;28;19905;-71
2023/03/25 11:03:21;;;;;;;;;;;19.80;92.60;;;;;;5025828;28;19916;-70
2023/03/25 11:05:47;;;;;;;;;;;19.30;92.40;;;;;;5027687;28;20371;-70
2023/03/25 11:08:14;;;;;;;;;;;19.00;92.80;;;;;;5027833;28;19924;-70
2023/03/25 11:10:39;;;;;;;;;;;18.60;92.70;;;;;;5028160;28;19926;-70
2023/03/25 11:13:10;;;;;;;;;;;18.60;93.20;;;;;;5026789;28;19917;-70
2023/03/25 11:15:37;;;;;;;;;;;19.40;94.00;;;;;;5027981;28;19909;-70
2023/03/25 11:18:17;;;;;;;;;;;20.50;94.20;;;;;;5028144;28;20361;-70
2023/03/25 11:20:52;;;;;;;;;;;21.60;94.20;;;;;;5026184;28;20050;-71
2023/03/25 11:23:26;;;;;;;;;;;22.60;93.80;;;;;;5027613;28;20019;-71
2023/03/25 11:25:52;;;;;;;;;;;23.40;93.70;;;;;;5027083;28;20230;-70
2023/03/25 11:28:26;;;;;;;;;;;23.90;93.30;;;;;;5029246;28;19967;-70
2023/03/25 11:31:12;;;;;;;;;;;23.60;92.50;;;;;;5031082;28;20306;-71
2023/03/25 11:33:38;;;;;;;;;;;23.00;92.20;;;;;;5030403;28;19909;-70
2023/03/25 11:36:11;;;;;;;;;;;23.20;93.40;;;;;;5032165;28;20321;-73
2023/03/25 11:38:38;;;;;;;;;;;23.80;93.70;;;;;;5030516;28;20337;-71
2023/03/25 11:41:04;;;;;;;;;;;24.20;93.40;;;;;;5031591;28;19944;-70
2023/03/25 11:43:34;;;;;;;;;;;24.00;92.80;;;;;;5030966;28;19909;-71
2023/03/25 11:46:13;;;;;;;;;;;23.60;92.90;;;;;;5030964;28;19911;-71
2023/03/25 11:48:40;;;;;;;;;;;23.60;93.20;;;;;;5030143;28;19905;-72
2023/03/25 11:51:12;;;;;;;;;;;23.90;93.40;;;;;;5030702;28;19920;-71
2023/03/25 11:53:42;;;;;;;;;;;24.10;93.30;;;;;;5031094;28;20253;-72
2023/03/25 11:56:14;;;;;;;;;;;24.50;93.70;;;;;;5029209;28;19909;-72
2023/03/25 11:58:40;;;;;;;;;;;25.00;93.60;;;;;;5031176;28;19905;-73
2023/03/25 12:01:16;;;;;;;;;;;24.50;92.80;;;;;;5030940;28;19935;-70
2023/03/25 12:03:43;;;;;;;;;;;23.50;92.20;;;;;;5030809;28;19964;-73
2023/03/25 12:06:17;;;;;;;;;;;22.50;92.60;;;;;;5029938;28;19927;-72
2023/03/25 12:08:50;;;;;;;;;;;21.60;92.30;;;;;;5031246;28;19944;-73
2023/03/25 12:11:21;;;;;;;;;;;20.80;92.50;;;;;;5031473;28;19905;-70
2023/03/25 12:14:10;;;;;;;;;;;20.10;92.70;;;;;;5030850;28;20332;-74
2023/03/25 12:16:39;;;;;;;;;;;19.70;92.90;;;;;;5032394;28;19908;-77
2023/03/25 12:19:23;;;;;;;;;;;19.20;92.80;;;;;;5031352;28;19906;-76
2023/03/25 12:22:07;;;;;;;;;;;18.80;92.60;;;;;;5031265;28;20060;-76
2023/03/25 12:24:36;;;;;;;;;;;18.30;92.60;;;;;;5030859;28;20019;-71
2023/03/25 12:27:20;;;;;;;;;;;18.00;92.80;;;;;;5030080;28;19908;-72
2023/03/25 12:29:45;;;;;;;;;;;17.90;93.00;;;;;;5030434;28;20021;-73
2023/03/25 12:32:14;;;;;;;;;;;17.90;93.00;;;;;;5029451;28;19916;-74
2023/03/25 12:34:39;;;;;;;;;;;18.00;92.90;;;;;;5029859;28;19912;-74
2023/03/25 12:37:15;;;;;;;;;;;18.10;92.90;;;;;;5029542;28;20012;-71
2023/03/25 12:39:46;;;;;;;;;;;18.60;93.70;;;;;;5028877;28;20008;-75
2023/03/25 12:42:15;;;;;;;;;;;19.80;94.20;;;;;;5030446;28;19912;-76
2023/03/25 12:45:02;;;;;;;;;;;21.00;94.20;;;;;;5030396;28;19912;-75
2023/03/25 12:47:38;;;;;;;;;;;21.90;94.10;;;;;;5030660;28;20003;-75
2023/03/25 12:50:10;;;;;;;;;;;22.30;93.30;;;;;;5030072;28;19905;-74
2023/03/25 12:52:55;;;;;;;;;;;22.30;93.30;;;;;;5029878;28;19905;-74
2023/03/25 12:55:23;;;;;;;;;;;22.00;92.80;;;;;;5030887;28;19909;-73
2023/03/25 12:58:27;;;;;;;;;;;21.20;92.40;;;;;;5028928;28;19921;-74
2023/03/25 13:01:06;;;;;;;;;;;20.40;92.30;;;;;;4991168;28;19906;-73
2023/03/25 13:03:40;;;;;;;;;;;19.60;92.30;;;;;;5008442;28;19917;-75
2023/03/25 13:06:06;;;;;;;;;;;18.80;92.10;;;;;;5021633;28;20284;-74
2023/03/25 13:08:38;;;;;;;;;;;18.00;92.00;;;;;;5028887;28;19996;-73
2023/03/25 13:11:11;;;;;;;;;;;17.30;92.00;;;;;;5037740;28;20246;-74
2023/03/25 13:13:37;;;;;;;;;;;17.00;92.80;;;;;;5041452;28;19905;-75
2023/03/25 13:16:03;;;;;;;;;;;17.10;93.40;;;;;;5044586;28;19912;-75
2023/03/25 13:18:48;;;;;;;;;;;17.30;93.40;;;;;;5038825;28;19917;-75
2023/03/25 13:21:20;;;;;;;;;;;17.70;93.60;;;;;;5040816;28;19924;-75
2023/03/25 13:23:49;;;;;;;;;;;18.30;94.10;;;;;;5042509;28;19987;-75
2023/03/25 13:26:25;;;;;;;;;;;18.90;93.90;;;;;;5036630;28;19948;-74
2023/03/25 13:28:57;;;;;;;;;;;19.40;93.90;;;;;;5031967;28;19975;-74
2023/03/25 13:31:26;;;;;;;;;;;20.00;93.90;;;;;;5028949;28;19905;-74
2023/03/25 13:34:12;;;;;;;;;;;20.40;93.80;;;;;;5029044;28;19915;-71
2023/03/25 13:36:41;;;;;;;;;;;20.60;93.70;;;;;;5029285;28;19909;-74
2023/03/25 13:39:17;;;;;;;;;;;20.70;93.40;;;;;;5029087;28;19909;-74
2023/03/25 13:41:45;;;;;;;;;;;20.60;93.40;;;;;;5028733;28;19905;-75
2023/03/25 13:44:18;;;;;;;;;;;20.60;93.60;;;;;;5026836;28;19905;-74
2023/03/25 13:46:56;;;;;;;;;;;20.60;93.60;;;;;;5028497;28;19967;-69
2023/03/25 13:49:29;;;;;;;;;;;20.60;93.50;;;;;;5028053;28;19915;-75
2023/03/25 13:51:55;;;;;;;;;;;20.40;93.30;;;;;;5029178;28;19905;-76
2023/03/25 13:54:20;;;;;;;;;;;20.00;93.20;;;;;;5028758;28;19909;-74
2023/03/25 13:56:52;;;;;;;;;;;19.80;93.20;;;;;;5027206;28;20348;-73
2023/03/25 13:59:36;;;;;;;;;;;19.50;93.00;;;;;;5028949;28;20361;-72
2023/03/25 14:02:20;;;;;;;;;;;19.20;92.60;;;;;;5027836;28;19921;-74
2023/03/25 14:05:05;;;;;;;;;;;18.60;92.40;;;;;;5026800;28;19922;-75
2023/03/25 14:07:52;;;;;;;;;;;17.80;91.90;;;;;;5028129;28;19905;-73
2023/03/25 14:10:47;;;;;;;;;;;17.00;92.00;;;;;;5028763;28;19904;-70
2023/03/25 14:13:15;;;;;;;;;;;16.50;92.30;;;;;;5008472;28;19929;-76
2023/03/25 14:15:46;;;;;;;;;;;16.00;92.60;;;;;;5027004;28;19940;-74
2023/03/25 14:18:18;;;;;;;;;;;15.80;92.80;;;;;;5028378;28;19913;-75
2023/03/25 14:20:44;;;;;;;;;;;15.80;93.00;;;;;;5027453;28;20683;-76
2023/03/25 14:23:16;;;;;;;;;;;15.90;93.10;;;;;;5027963;28;20040;-76
2023/03/25 14:26:08;;;;;;;;;;;16.00;93.10;;;;;;5028259;28;20605;-75
2023/03/25 14:28:34;;;;;;;;;;;16.10;92.90;;;;;;5028153;28;19980;-76
2023/03/25 14:31:05;;;;;;;;;;;16.30;92.90;;;;;;5029105;28;20000;-76
2023/03/25 14:33:50;;;;;;;;;;;16.40;92.90;;;;;;5029008;28;19909;-75
2023/03/25 14:36:16;;;;;;;;;;;16.50;92.70;;;;;;5034069;28;19912;-74